Time;durP1;ratioP1;P1;durP2;ratioP2;P2;SDS_P1;SDS_P2;PMS_P1;PMS_P2;Temp;Humidity;BMP_temperature;BMP_pressure;BME280_temperature;BME280_humidity;BME280_pressure;Samples;Min_cycle;Max_cycle;Signal;HPM_P1;HPM_P2
2021/05/27 00:00:51;;;;;;;2.50;1.77;;;;;;;5.90;100.00;93889.09;5076287;28;20199;-78
2021/05/27 00:03:17;;;;;;;4.93;1.80;;;;;;;5.90;100.00;93883.94;5076216;28;20203;-78
2021/05/27 00:05:43;;;;;;;5.60;1.70;;;;;;;5.89;100.00;93871.94;5075918;28;20199;-77
2021/05/27 00:08:09;;;;;;;1.80;1.70;;;;;;;5.85;100.00;93877.66;5075772;28;20584;-77
2021/05/27 00:10:36;;;;;;;4.47;2.17;;;;;;;5.84;100.00;93863.88;5076194;28;20285;-76
2021/05/27 00:13:03;;;;;;;2.87;1.70;;;;;;;5.70;100.00;93888.72;5076125;28;20241;-79
2021/05/27 00:15:31;;;;;;;2.73;2.33;;;;;;;5.69;100.00;93881.91;5076267;28;20214;-77
2021/05/27 00:17:58;;;;;;;3.37;2.53;;;;;;;5.69;100.00;93894.06;5075839;28;20237;-78
2021/05/27 00:20:25;;;;;;;5.27;2.90;;;;;;;5.72;100.00;93891.94;5076043;28;20202;-79
2021/05/27 00:22:51;;;;;;;4.87;3.10;;;;;;;5.77;100.00;93878.47;5075173;28;20230;-77
2021/05/27 00:25:17;;;;;;;6.67;2.90;;;;;;;5.75;100.00;93890.81;5074795;28;20203;-78
2021/05/27 00:27:46;;;;;;;3.50;2.63;;;;;;;5.72;100.00;93889.34;5074613;28;20222;-78
2021/05/27 00:30:14;;;;;;;5.47;3.30;;;;;;;5.72;100.00;93891.13;5074474;28;20205;-78
2021/05/27 00:32:40;;;;;;;5.43;3.17;;;;;;;5.74;100.00;93884.81;5074491;28;20199;-77
2021/05/27 00:35:07;;;;;;;4.87;3.00;;;;;;;5.82;100.00;93881.38;5074497;28;20700;-77
2021/05/27 00:37:33;;;;;;;4.10;2.80;;;;;;;5.84;100.00;93884.59;5074559;28;20217;-78
2021/05/27 00:40:00;;;;;;;5.20;2.33;;;;;;;5.83;100.00;93877.81;5074696;28;20198;-77
2021/05/27 00:42:26;;;;;;;6.93;2.80;;;;;;;5.82;100.00;93876.19;5073980;28;20203;-76
2021/05/27 00:45:00;;;;;;;3.07;2.27;;;;;;;5.89;100.00;93871.94;5074382;28;20211;-76
2021/05/27 00:47:26;;;;;;;4.83;2.13;;;;;;;5.89;100.00;93877.13;5074102;28;20271;-78
2021/05/27 00:49:52;;;;;;;3.07;1.90;;;;;;;5.86;100.00;93869.72;5076215;28;20202;-77
2021/05/27 00:52:18;;;;;;;3.43;1.77;;;;;;;5.81;100.00;93879.78;5074304;28;20561;-77
2021/05/27 00:54:46;;;;;;;2.00;1.60;;;;;;;5.87;100.00;93870.50;5074271;28;20199;-76
2021/05/27 00:57:22;;;;;;;1.97;1.40;;;;;;;5.80;100.00;93885.91;5074171;28;20210;-77
2021/05/27 00:59:48;;;;;;;2.93;1.37;;;;;;;5.78;100.00;93874.09;5074263;28;20259;-77
2021/05/27 01:02:15;;;;;;;1.83;1.42;;;;;;;5.76;100.00;93876.84;5073374;28;20828;-77
2021/05/27 01:04:41;;;;;;;1.83;1.30;;;;;;;5.71;100.00;93868.78;5073847;28;20260;-76
2021/05/27 01:07:07;;;;;;;1.13;1.03;;;;;;;5.69;100.00;93866.34;5073913;28;20604;-78
2021/05/27 01:09:33;;;;;;;2.80;1.30;;;;;;;5.70;100.00;93872.38;5074001;28;20202;-77
2021/05/27 01:11:59;;;;;;;2.80;1.10;;;;;;;5.62;100.00;93880.16;5073909;28;20672;-76
2021/05/27 01:17:06;;;;;;;5.97;1.10;;;;;;;5.51;100.00;93883.91;5072713;28;20229;-76
2021/05/27 01:19:33;;;;;;;1.70;1.60;;;;;;;5.51;100.00;93887.31;5073698;28;20672;-77
2021/05/27 01:22:00;;;;;;;1.93;0.90;;;;;;;5.52;100.00;93888.91;5073857;28;20207;-77
2021/05/27 01:24:26;;;;;;;2.53;1.20;;;;;;;5.53;100.00;93890.56;5037988;28;1038802;-76
2021/05/27 01:26:52;;;;;;;1.20;1.10;;;;;;;5.53;100.00;93890.56;5074520;28;20194;-77
2021/05/27 01:29:18;;;;;;;1.63;1.13;;;;;;;5.55;100.00;93891.19;5074662;28;20258;-76
2021/05/27 01:31:44;;;;;;;3.93;1.43;;;;;;;5.57;100.00;93904.75;5074509;28;20614;-76
2021/05/27 01:34:10;;;;;;;2.33;1.50;;;;;;;5.57;100.00;93904.75;5074603;28;20203;-76
2021/05/27 01:36:36;;;;;;;2.30;1.60;;;;;;;5.54;100.00;93899.13;5074455;28;20226;-76
2021/05/27 01:39:09;;;;;;;3.57;1.80;;;;;;;5.61;100.00;93891.50;5074446;28;20202;-76
2021/05/27 01:41:35;;;;;;;1.90;1.23;;;;;;;5.60;100.00;93895.06;5074519;28;20289;-77
2021/05/27 01:44:01;;;;;;;1.80;1.30;;;;;;;5.63;100.00;93889.53;5074313;28;20220;-76
2021/05/27 01:46:27;;;;;;;2.72;1.38;;;;;;;5.65;100.00;93905.72;5073139;28;20441;-77
2021/05/27 01:48:53;;;;;;;1.47;1.30;;;;;;;5.65;100.00;93903.16;5074195;28;20258;-76
2021/05/27 01:51:19;;;;;;;2.17;1.20;;;;;;;5.63;100.00;93897.31;5074250;28;20198;-77
2021/05/27 01:53:46;;;;;;;2.50;1.43;;;;;;;5.62;100.00;93893.13;5073350;28;20199;-77
2021/05/27 01:56:13;;;;;;;1.57;1.00;;;;;;;5.64;100.00;93891.16;5073974;28;20203;-78
2021/05/27 01:58:39;;;;;;;1.33;1.13;;;;;;;5.68;100.00;93889.84;5073978;28;20203;-79
2021/05/27 02:01:05;;;;;;;2.37;1.10;;;;;;;5.65;100.00;93895.38;5074041;28;20285;-77
2021/05/27 02:03:31;;;;;;;0.97;0.97;;;;;;;5.63;100.00;93887.78;5073814;28;20662;-78
2021/05/27 02:05:57;;;;;;;1.77;1.30;;;;;;;5.56;100.00;93897.16;5073745;28;20195;-77
2021/05/27 02:08:23;;;;;;;1.80;1.30;;;;;;;5.58;100.00;93890.06;5073881;28;20230;-78
2021/05/27 02:10:49;;;;;;;6.27;1.20;;;;;;;5.58;100.00;93892.66;5073876;28;20199;-77
2021/05/27 02:13:16;;;;;;;1.47;1.20;;;;;;;5.53;100.00;93903.50;5073606;28;20213;-78
2021/05/27 02:15:42;;;;;;;1.83;1.23;;;;;;;5.52;100.00;93903.66;5073877;28;20206;-77
2021/05/27 02:18:08;;;;;;;1.30;1.00;;;;;;;5.51;100.00;93895.09;5073717;28;20569;-76
2021/05/27 02:20:34;;;;;;;1.30;1.20;;;;;;;5.53;100.00;93890.56;5073732;28;20281;-76
2021/05/27 02:23:00;;;;;;;4.60;1.53;;;;;;;5.56;100.00;93881.63;5073334;28;20233;-77
2021/05/27 02:25:26;;;;;;;2.20;1.40;;;;;;;5.56;100.00;93886.81;5073373;28;20194;-77
2021/05/27 02:27:54;;;;;;;1.57;1.30;;;;;;;5.51;100.00;93895.09;5073451;28;20233;-77
2021/05/27 02:30:22;;;;;;;4.10;1.23;;;;;;;5.54;100.00;93896.53;5073398;28;20653;-76
2021/05/27 02:32:48;;;;;;;1.27;1.17;;;;;;;5.52;100.00;93891.50;5073556;28;20256;-77
2021/05/27 02:35:14;;;;;;;2.50;1.30;;;;;;;5.51;100.00;93884.72;5073396;28;20222;-76
2021/05/27 02:37:40;;;;;;;3.47;1.60;;;;;;;5.53;100.00;93898.31;5073215;28;20294;-76
2021/05/27 02:40:07;;;;;;;1.80;1.50;;;;;;;5.52;100.00;93901.06;5075695;28;20190;-76
2021/05/27 02:42:33;;;;;;;1.27;1.13;;;;;;;5.49;100.00;93896.22;5073105;28;20812;-77
2021/05/27 02:44:59;;;;;;;2.77;1.60;;;;;;;5.52;100.00;93898.47;5073326;28;20562;-76
2021/05/27 02:47:26;;;;;;;1.57;1.23;;;;;;;5.53;100.00;93898.31;5073178;28;20229;-77
2021/05/27 02:49:52;;;;;;;1.63;1.37;;;;;;;5.50;100.00;93903.81;5073161;28;20530;-76
2021/05/27 02:52:18;;;;;;;2.53;1.57;;;;;;;5.57;100.00;93904.75;5073107;28;20202;-76
2021/05/27 02:54:44;;;;;;;1.87;1.43;;;;;;;5.57;100.00;93907.34;5072912;28;20198;-76
2021/05/27 02:57:10;;;;;;;2.90;1.57;;;;;;;5.51;100.00;93904.63;5073202;28;20198;-76
2021/05/27 02:59:36;;;;;;;5.17;1.60;;;;;;;5.55;100.00;93903.34;5073375;28;20198;-76
2021/05/27 03:02:03;;;;;;;1.97;1.40;;;;;;;5.48;100.00;93900.59;5073097;28;20218;-76
2021/05/27 03:04:30;;;;;;;2.53;1.70;;;;;;;5.47;100.00;93903.34;5072887;28;20202;-75
2021/05/27 03:06:56;;;;;;;3.53;1.33;;;;;;;5.45;100.00;93906.09;5072897;28;20210;-77
2021/05/27 03:09:22;;;;;;;3.83;1.60;;;;;;;5.52;100.00;93906.25;5072030;28;20458;-77
2021/05/27 03:11:50;;;;;;;2.43;1.80;;;;;;;5.54;100.00;93904.28;5072782;28;20207;-76
2021/05/27 03:14:16;;;;;;;2.10;1.40;;;;;;;5.53;100.00;93913.84;5073039;28;20202;-75
2021/05/27 03:16:42;;;;;;;2.93;1.63;;;;;;;5.59;100.00;93916.75;5072767;28;20213;-76
2021/05/27 03:19:08;;;;;;;2.77;1.53;;;;;;;5.59;100.00;93911.56;5072815;28;20252;-76
2021/05/27 03:21:35;;;;;;;2.03;1.83;;;;;;;5.63;100.00;93912.84;5072729;28;20195;-75
2021/05/27 03:24:01;;;;;;;2.17;1.40;;;;;;;5.60;100.00;93914.00;5072529;28;20284;-77
2021/05/27 03:26:27;;;;;;;4.03;1.60;;;;;;;5.60;100.00;93905.44;5072817;28;20693;-78
2021/05/27 03:28:53;;;;;;;1.93;1.30;;;;;;;5.59;100.00;93898.63;5072859;28;20226;-76
2021/05/27 03:31:19;;;;;;;2.70;1.53;;;;;;;5.59;100.00;93901.22;5072766;28;20198;-75
2021/05/27 03:33:45;;;;;;;5.03;1.60;;;;;;;5.57;100.00;93903.97;5072656;28;20206;-77
2021/05/27 03:36:11;;;;;;;3.10;1.57;;;;;;;5.59;100.00;93906.41;5072969;28;20225;-75
2021/05/27 03:38:38;;;;;;;4.50;1.60;;;;;;;5.52;100.00;93893.31;5072705;28;20531;-76
2021/05/27 03:41:04;;;;;;;1.90;1.43;;;;;;;5.50;100.00;93895.25;5072601;28;20658;-77
2021/05/27 03:43:30;;;;;;;2.83;1.60;;;;;;;5.48;100.00;93900.59;5072750;28;20202;-77
2021/05/27 03:45:56;;;;;;;2.70;1.43;;;;;;;5.46;100.00;93899.97;5072779;28;20673;-77
2021/05/27 03:48:22;;;;;;;5.00;1.83;;;;;;;5.48;100.00;93900.59;5072512;28;20277;-76
2021/05/27 03:50:48;;;;;;;3.27;1.80;;;;;;;5.52;100.00;93888.91;5072898;28;20663;-77
2021/05/27 03:53:14;;;;;;;4.28;1.95;;;;;;;5.54;100.00;93897.31;5071317;28;20438;-76
2021/05/27 03:55:41;;;;;;;2.60;1.80;;;;;;;5.48;100.00;93892.84;5072885;28;20199;-76
2021/05/27 04:00:48;;;;;;;2.33;1.80;;;;;;;5.44;100.00;93907.06;5071522;28;20221;-75
2021/05/27 04:03:14;;;;;;;2.53;1.90;;;;;;;5.44;100.00;93909.66;5072496;28;20206;-75
2021/05/27 04:08:24;;;;;;;4.93;2.00;;;;;;;5.59;100.00;93907.19;5072518;28;20311;-78
2021/05/27 04:10:51;;;;;;;4.50;1.57;;;;;;;5.60;100.00;93910.59;5072433;28;20213;-76
2021/05/27 04:13:17;;;;;;;3.27;1.83;;;;;;;5.55;100.00;93898.16;5072313;28;20248;-76
2021/05/27 04:15:44;;;;;;;4.20;1.93;;;;;;;5.51;100.00;93905.44;5072961;28;20202;-76
2021/05/27 04:18:13;;;;;;;2.53;1.87;;;;;;;5.51;100.00;93902.88;5075751;28;20209;-75
2021/05/27 04:20:42;;;;;;;2.93;1.63;;;;;;;5.64;100.00;93906.69;5076076;28;20281;-76
2021/05/27 04:23:11;;;;;;;3.47;2.07;;;;;;;5.65;100.00;93916.09;5075994;28;20234;-76
2021/05/27 04:25:37;;;;;;;2.50;1.60;;;;;;;5.67;100.00;93909.75;5075997;28;20198;-75
2021/05/27 04:28:05;;;;;;;4.30;2.13;;;;;;;5.71;100.00;93913.66;5075676;28;20233;-77
2021/05/27 04:30:31;;;;;;;4.57;2.43;;;;;;;5.77;100.00;93914.75;5075522;28;20719;-77
2021/05/27 04:33:01;;;;;;;3.73;2.13;;;;;;;5.71;100.00;93923.19;5075554;28;20210;-77
2021/05/27 04:35:38;;;;;;;6.43;2.60;;;;;;;5.65;100.00;93924.66;5075772;28;20194;-77
2021/05/27 04:38:07;;;;;;;2.80;2.27;;;;;;;5.71;100.00;93926.59;5075605;28;20198;-76
2021/05/27 04:40:34;;;;;;;3.77;2.20;;;;;;;5.76;100.00;93923.47;5075471;28;20210;-77
2021/05/27 04:43:00;;;;;;;2.83;2.10;;;;;;;5.82;100.00;93928.00;5075318;28;20199;-77
2021/05/27 04:45:27;;;;;;;2.20;2.00;;;;;;;5.91;100.00;93926.19;5075302;28;20285;-77
2021/05/27 04:47:53;;;;;;;3.30;2.50;;;;;;;6.02;100.00;93922.47;5076633;28;20230;-77
2021/05/27 04:50:21;;;;;;;2.83;2.27;;;;;;;6.03;100.00;93935.25;5095755;28;20311;-77
2021/05/27 04:52:47;;;;;;;3.73;2.23;;;;;;;6.05;100.00;93932.50;5095751;28;20202;-76
2021/05/27 04:55:14;;;;;;;3.27;2.30;;;;;;;6.02;100.00;93933.63;5095512;28;20198;-77
2021/05/27 04:57:40;;;;;;;3.63;2.10;;;;;;;6.02;100.00;93938.81;5095422;28;20202;-78
2021/05/27 05:00:09;;;;;;;2.30;2.10;;;;;;;6.08;100.00;93942.53;5095216;28;20197;-78
2021/05/27 05:02:36;;;;;;;3.03;2.30;;;;;;;6.17;100.00;93949.28;5095267;28;20201;-77
2021/05/27 05:05:03;;;;;;;4.93;2.60;;;;;;;6.21;100.00;93949.75;5095424;28;20614;-77
2021/05/27 05:07:29;;;;;;;3.80;2.30;;;;;;;6.10;100.00;93948.34;5095211;28;20198;-78
2021/05/27 05:09:55;;;;;;;2.50;2.20;;;;;;;6.06;100.00;93957.41;5094357;28;20229;-77
2021/05/27 05:12:21;;;;;;;5.87;2.57;;;;;;;6.11;100.00;93957.72;5092970;28;20681;-78
2021/05/27 05:14:47;;;;;;;3.85;2.40;;;;;;;6.15;100.00;93959.00;5092589;28;20429;-78
2021/05/27 05:17:13;;;;;;;6.73;2.47;;;;;;;6.22;100.00;93957.34;5093832;28;20205;-78
2021/05/27 05:19:40;;;;;;;7.50;2.23;;;;;;;6.33;100.00;93955.34;5093596;28;20569;-78
2021/05/27 05:22:06;;;;;;;2.37;1.97;;;;;;;6.16;100.00;93959.81;5094054;28;20202;-78
2021/05/27 05:24:32;;;;;;;3.23;2.27;;;;;;;6.15;100.00;93966.78;5094015;28;20286;-77
2021/05/27 05:26:58;;;;;;;4.53;2.40;;;;;;;6.15;100.00;93963.41;5093998;28;20202;-77
2021/05/27 05:29:24;;;;;;;3.07;2.40;;;;;;;6.28;100.00;93963.66;5094553;28;20225;-79
2021/05/27 05:31:50;;;;;;;6.80;2.93;;;;;;;6.29;100.00;93966.09;5094971;28;20208;-77
2021/05/27 05:34:16;;;;;;;4.00;3.10;;;;;;;6.38;100.00;93966.03;5094879;28;20198;-78
2021/05/27 05:36:42;;;;;;;4.17;3.00;;;;;;;6.48;100.00;93971.81;5094695;28;20205;-78
2021/05/27 05:39:08;;;;;;;7.60;3.03;;;;;;;6.60;100.00;93970.44;5094733;28;20202;-76
2021/05/27 05:41:34;;;;;;;5.80;2.43;;;;;;;6.61;100.00;93979.84;5094453;28;20675;-76
2021/05/27 05:44:00;;;;;;;3.43;2.20;;;;;;;6.77;100.00;93967.75;5094881;28;20645;-79
2021/05/27 05:46:27;;;;;;;4.43;2.60;;;;;;;6.89;100.00;93971.56;5094583;28;20209;-77
2021/05/27 05:48:53;;;;;;;3.13;2.40;;;;;;;6.79;100.00;93976.16;5094138;28;20241;-77
2021/05/27 05:51:19;;;;;;;3.23;2.30;;;;;;;6.57;100.00;93975.97;5094405;28;20201;-78
2021/05/27 05:53:46;;;;;;;7.97;2.33;;;;;;;6.55;100.00;93971.94;5094502;28;20199;-77
2021/05/27 05:56:12;;;;;;;6.63;2.40;;;;;;;6.59;100.00;93971.41;5094192;28;20561;-77
2021/05/27 05:58:38;;;;;;;7.80;2.47;;;;;;;6.69;100.00;93975.59;5094408;28;20229;-77
2021/05/27 06:01:04;;;;;;;3.63;2.17;;;;;;;6.79;100.00;93976.16;5094418;28;20542;-77
2021/05/27 06:03:32;;;;;;;6.07;2.40;;;;;;;6.92;100.00;93973.81;5094313;28;20657;-77
2021/05/27 06:05:58;;;;;;;3.30;1.93;;;;;;;7.05;100.00;93986.22;5094261;28;20205;-78
2021/05/27 06:08:24;;;;;;;3.87;2.07;;;;;;;7.13;100.00;93991.34;5093966;28;20229;-77
2021/05/27 06:10:51;;;;;;;2.77;2.07;;;;;;;7.29;100.00;93992.22;5093936;28;20198;-78
2021/05/27 06:13:17;;;;;;;3.13;2.20;;;;;;;7.19;100.00;93997.63;5094180;28;20201;-77
2021/05/27 06:15:43;;;;;;;3.80;2.30;;;;;;;7.02;100.00;93991.75;5093913;28;20197;-77
2021/05/27 06:18:10;;;;;;;4.03;2.20;;;;;;;7.13;100.00;93990.56;5093910;28;20229;-77
2021/05/27 06:20:36;;;;;;;6.77;2.40;;;;;;;7.23;100.00;93989.31;5093768;28;20198;-78
2021/05/27 06:23:02;;;;;;;4.63;3.03;;;;;;;7.28;100.00;93995.78;5093579;28;20272;-77
2021/05/27 06:25:28;;;;;;;5.63;2.30;;;;;;;7.34;100.00;94001.06;5091236;28;20561;-77
2021/05/27 06:27:55;;;;;;;7.73;2.40;;;;;;;7.44;100.00;94000.03;5093855;28;20239;-77
2021/05/27 06:30:24;;;;;;;3.37;2.23;;;;;;;7.39;100.00;93997.97;5093627;28;20661;-78
2021/05/27 06:32:50;;;;;;;5.43;2.50;;;;;;;7.39;100.00;94001.38;5093839;28;20285;-77
2021/05/27 06:35:17;;;;;;;8.63;2.30;;;;;;;7.15;100.00;94006.75;5093642;28;20225;-77
2021/05/27 06:37:43;;;;;;;5.83;2.80;;;;;;;7.17;100.00;93999.59;5093518;28;20202;-77
2021/05/27 06:40:11;;;;;;;5.63;2.80;;;;;;;7.28;100.00;94011.34;5093575;28;20202;-78
2021/05/27 06:42:37;;;;;;;5.53;2.13;;;;;;;7.28;100.00;94009.59;5085546;28;20199;-77
2021/05/27 06:45:06;;;;;;;7.27;2.13;;;;;;;7.34;100.00;94001.06;5073049;28;20264;-77
2021/05/27 06:47:32;;;;;;;1.97;1.60;;;;;;;7.43;100.00;94003.59;5073266;28;20202;-76
2021/05/27 06:49:58;;;;;;;3.93;2.10;;;;;;;7.28;100.00;94004.38;5073047;28;20279;-78
2021/05/27 06:52:24;;;;;;;4.47;2.30;;;;;;;7.51;100.00;94000.94;5073036;28;20214;-78
2021/05/27 06:54:51;;;;;;;3.43;1.90;;;;;;;7.65;100.00;94007.97;5073154;28;20194;-76
2021/05/27 06:57:17;;;;;;;4.00;2.17;;;;;;;7.72;100.00;94003.66;5073184;28;20199;-76
2021/05/27 06:59:43;;;;;;;5.53;2.17;;;;;;;7.73;100.00;94007.91;5072890;28;20203;-76
2021/05/27 07:02:10;;;;;;;4.10;1.97;;;;;;;7.74;100.00;94011.28;5073004;28;20194;-76
2021/05/27 07:04:35;;;;;;;4.07;2.27;;;;;;;7.78;100.00;94008.16;5073000;28;20202;-75
2021/05/27 07:07:01;;;;;;;2.17;1.80;;;;;;;7.68;100.00;94010.22;5072666;28;20657;-75
2021/05/27 07:09:27;;;;;;;4.07;1.77;;;;;;;7.39;100.00;94013.53;5071436;28;20453;-78
2021/05/27 07:11:53;;;;;;;4.73;2.30;;;;;;;7.32;100.00;94023.81;5073028;28;20195;-78
2021/05/27 07:14:19;;;;;;;4.47;2.50;;;;;;;7.68;100.00;94020.63;5072944;28;20199;-76
2021/05/27 07:16:45;;;;;;;6.10;2.57;;;;;;;7.72;100.00;94018.47;5072973;28;20260;-76
2021/05/27 07:19:12;;;;;;;6.20;2.37;;;;;;;7.85;100.00;94025.66;5072794;28;20205;-77
2021/05/27 07:21:38;;;;;;;2.53;2.20;;;;;;;7.60;100.00;94021.47;5072197;28;20206;-76
2021/05/27 07:24:05;;;;;;;4.77;2.20;;;;;;;7.41;100.00;94022.78;5072745;28;20226;-76
2021/05/27 07:26:32;;;;;;;4.70;2.20;;;;;;;7.34;100.00;94021.84;5072782;28;20653;-75
2021/05/27 07:28:58;;;;;;;3.33;2.50;;;;;;;7.37;100.00;94026.69;5072775;28;20222;-75
2021/05/27 07:31:24;;;;;;;8.37;2.67;;;;;;;7.64;100.00;94039.31;5072710;28;20205;-77
2021/05/27 07:33:50;;;;;;;4.20;2.63;;;;;;;7.91;100.00;94043.13;5072610;28;20209;-76
2021/05/27 07:36:17;;;;;;;4.53;2.40;;;;;;;8.17;100.00;94050.50;5072508;28;20198;-78
2021/05/27 07:38:43;;;;;;;4.83;2.10;;;;;;;8.14;100.00;94036.09;5072627;28;20206;-77
2021/05/27 07:41:09;;;;;;;2.30;1.83;;;;;;;8.15;100.00;94024.69;5072761;28;20210;-77
2021/05/27 07:43:35;;;;;;;3.67;2.17;;;;;;;7.87;100.00;94021.88;5072480;28;20202;-77
2021/05/27 07:46:02;;;;;;;5.90;2.30;;;;;;;8.08;100.00;94018.59;5072631;28;20653;-76
2021/05/27 07:48:28;;;;;;;5.60;2.30;;;;;;;8.15;100.00;94016.88;5072423;28;20299;-75
2021/05/27 07:50:53;;;;;;;5.10;2.00;;;;;;;7.81;100.00;94017.41;5073284;28;20705;-77
2021/05/27 07:53:21;;;;;;;3.80;2.00;;;;;;;7.75;100.00;94018.13;5076476;28;20213;-76
2021/05/27 07:55:47;;;;;;;4.47;2.60;;;;;;;7.63;100.00;94020.34;5076459;28;20198;-75
2021/05/27 07:58:13;;;;;;;4.87;2.37;;;;;;;7.50;100.00;94030.53;5076334;28;20207;-77
2021/05/27 08:00:39;;;;;;;7.07;2.70;;;;;;;7.57;100.00;94031.41;5076259;28;20198;-76
2021/05/27 08:03:05;;;;;;;2.77;2.20;;;;;;;7.96;100.00;94039.03;5076052;28;20248;-77
2021/05/27 08:05:32;;;;;;;6.13;2.47;;;;;;;8.88;100.00;94034.44;5076076;28;20202;-77
2021/05/27 08:07:58;;;;;;;5.03;2.50;;;;;;;9.68;100.00;94031.78;5076099;28;20222;-76
2021/05/27 08:10:24;;;;;;;4.10;2.10;;;;;;;9.85;100.00;94033.13;5085533;28;20208;-76
2021/05/27 08:12:50;;;;;;;2.93;2.03;;;;;;;10.52;100.00;94026.53;5096344;28;20199;-76
2021/05/27 08:15:16;;;;;;;3.90;1.87;;;;;;;10.65;100.00;94031.00;5096213;28;20248;-77
2021/05/27 08:17:42;;;;;;;3.13;1.90;;;;;;;10.37;100.00;94028.44;5096011;28;20210;-75
2021/05/27 08:20:10;;;;;;;6.10;1.67;;;;;;;10.25;100.00;94035.19;5096337;28;20202;-75
2021/05/27 08:22:36;;;;;;;4.80;1.90;;;;;;;9.70;100.00;94040.22;5095927;28;20324;-77
2021/05/27 08:25:03;;;;;;;2.67;1.60;;;;;;;9.65;100.00;94037.38;5096314;28;20209;-76
2021/05/27 08:27:30;;;;;;;3.53;1.63;;;;;;;9.80;100.00;94040.69;5095988;28;20248;-76
2021/05/27 08:29:57;;;;;;;2.43;1.73;;;;;;;10.06;100.00;94031.44;5095846;28;20226;-78
2021/05/27 08:32:23;;;;;;;4.50;1.73;;;;;;;10.18;100.00;94032.53;5095480;28;20205;-77
2021/05/27 08:34:49;;;;;;;3.40;1.63;;;;;;;10.29;100.00;94029.41;5095568;28;20436;-76
2021/05/27 08:37:15;;;;;;;3.97;1.60;;;;;;;10.24;100.00;94039.59;5095967;28;20656;-76
2021/05/27 08:39:41;;;;;;;2.37;1.60;;;;;;;9.84;100.00;94048.94;5095860;28;20202;-76
2021/05/27 08:42:07;;;;;;;3.57;1.33;;;;;;;10.09;100.00;94038.88;5095734;28;20673;-76
2021/05/27 08:44:35;;;;;;;1.83;1.67;;;;;;;10.37;100.00;94044.09;5086656;28;20203;-77
2021/05/27 08:47:01;;;;;;;6.60;1.80;;;;;;;10.83;100.00;94053.19;5075234;28;20247;-76
2021/05/27 08:49:29;;;;;;;2.90;1.60;;;;;;;10.02;100.00;94051.09;5075442;28;20227;-76
2021/05/27 08:51:55;;;;;;;2.40;1.30;;;;;;;10.64;100.00;94045.06;5075193;28;20203;-77
2021/05/27 08:54:21;;;;;;;6.73;1.60;;;;;;;10.56;100.00;94050.47;5075351;28;20225;-76
2021/05/27 08:56:47;;;;;;;5.50;1.83;;;;;;;10.81;100.00;94052.56;5075049;28;20195;-76
2021/05/27 08:59:13;;;;;;;3.90;1.70;;;;;;;10.84;99.96;94054.78;5075230;28;20210;-77
2021/05/27 09:02:01;;;;;;;4.93;1.50;;;;;;;10.99;95.34;94052.84;5074722;28;20199;-77
2021/05/27 09:04:29;;;;;;;2.73;1.83;;;;;;;10.50;99.01;94059.03;5075252;28;20207;-76
2021/05/27 09:06:55;;;;;;;4.20;1.60;;;;;;;10.87;100.00;94059.63;5074859;28;20654;-76
2021/05/27 09:09:21;;;;;;;1.90;1.40;;;;;;;11.57;98.31;94067.25;5074871;28;20227;-76
2021/05/27 09:11:48;;;;;;;1.30;1.20;;;;;;;12.00;89.93;94066.91;5074829;28;20207;-76
2021/05/27 09:14:14;;;;;;;3.03;1.60;;;;;;;12.54;94.24;94065.00;5074770;28;20233;-77
2021/05/27 09:16:56;;;;;;;5.00;1.60;;;;;;;12.09;90.00;94060.47;5075003;28;20203;-76
2021/05/27 09:19:23;;;;;;;1.50;1.27;;;;;;;12.41;93.00;94071.09;5074851;28;20264;-76
2021/05/27 09:21:50;;;;;;;2.83;1.30;;;;;;;12.12;95.33;94060.03;5074930;28;20230;-77
2021/05/27 09:24:16;;;;;;;3.13;0.97;;;;;;;11.08;91.13;94066.53;5074489;28;20254;-77
2021/05/27 09:26:53;;;;;;;2.77;1.13;;;;;;;10.97;93.29;94067.88;5074524;28;20217;-75
2021/05/27 09:29:20;;;;;;;3.20;1.10;;;;;;;11.16;92.74;94070.75;5074630;28;20222;-76
2021/05/27 09:32:04;;;;;;;2.93;1.30;;;;;;;10.36;94.17;94064.19;5074577;28;20206;-75
2021/05/27 09:34:42;;;;;;;1.53;1.07;;;;;;;10.15;87.62;94064.22;5074455;28;20217;-77
2021/05/27 09:37:18;;;;;;;1.70;1.13;;;;;;;10.46;90.38;94063.03;5074344;28;20248;-77
2021/05/27 09:39:46;;;;;;;2.57;0.93;;;;;;;10.98;82.50;94056.44;5074591;28;20715;-75
2021/05/27 09:42:12;;;;;;;1.63;0.90;;;;;;;11.81;86.51;94050.19;5074278;28;20654;-76
2021/05/27 09:44:38;;;;;;;1.80;1.00;;;;;;;11.64;83.44;94054.97;5074368;28;20198;-77
2021/05/27 09:47:04;;;;;;;1.67;0.87;;;;;;;11.62;82.33;94049.16;5074227;28;20289;-77
2021/05/27 09:49:33;;;;;;;2.67;1.00;;;;;;;12.81;88.75;94049.25;5073996;28;20284;-76
2021/05/27 09:52:13;;;;;;;3.57;1.00;;;;;;;13.37;82.84;94039.91;5074293;28;20205;-77
2021/05/27 09:54:51;;;;;;;1.20;1.10;;;;;;;13.33;81.47;94048.19;5074146;28;20665;-76
2021/05/27 09:57:25;;;;;;;2.37;0.90;;;;;;;13.65;83.78;94045.59;5074302;28;20199;-77
2021/05/27 09:59:51;;;;;;;4.00;1.10;;;;;;;13.14;76.24;94054.34;5074105;28;20199;-76
2021/05/27 10:02:18;;;;;;;4.83;0.90;;;;;;;12.92;84.04;94053.81;5074240;28;20195;-77
2021/05/27 10:05:05;;;;;;;5.40;2.00;;;;;;;12.43;81.88;94063.84;5074074;28;20230;-78
2021/05/27 10:07:39;;;;;;;1.10;1.00;;;;;;;11.69;75.26;94067.47;5073895;28;20535;-75
2021/05/27 10:10:07;;;;;;;1.13;0.90;;;;;;;11.61;78.15;94061.41;5073613;28;20236;-77
2021/05/27 10:12:38;;;;;;;1.90;1.03;;;;;;;11.32;74.92;94056.53;5073861;28;20557;-76
2021/05/27 10:15:06;;;;;;;1.57;0.77;;;;;;;11.60;78.53;94051.16;5073549;28;20566;-75
2021/05/27 10:17:32;;;;;;;1.73;0.90;;;;;;;11.60;74.23;94067.66;5073373;28;20198;-76
2021/05/27 10:19:58;;;;;;;1.03;0.83;;;;;;;11.59;73.74;94063.44;5073634;28;20211;-76
2021/05/27 10:22:25;;;;;;;1.63;1.03;;;;;;;11.93;83.25;94064.28;5073393;28;20199;-76
2021/05/27 10:24:53;;;;;;;1.27;0.90;;;;;;;11.96;76.62;94065.72;5073380;28;20205;-77
2021/05/27 10:27:19;;;;;;;2.87;1.00;;;;;;;11.73;77.19;94055.59;5073579;28;20198;-77
2021/05/27 10:29:46;;;;;;;0.80;0.80;;;;;;;12.19;73.92;94057.41;5073434;28;20592;-76
2021/05/27 10:32:12;;;;;;;2.20;1.00;;;;;;;12.49;77.09;94055.16;5073390;28;20206;-76
2021/05/27 10:34:46;;;;;;;3.93;0.80;;;;;;;12.36;69.74;94052.59;5073352;28;20195;-76
2021/05/27 10:37:13;;;;;;;1.33;0.90;;;;;;;12.44;70.23;94055.00;5073254;28;20209;-77
2021/05/27 10:39:39;;;;;;;3.50;0.83;;;;;;;11.66;70.62;94051.16;5073385;28;20285;-76
2021/05/27 10:42:07;;;;;;;3.03;0.90;;;;;;;11.43;76.09;94054.16;5073322;28;20195;-76
2021/05/27 10:44:33;;;;;;;1.97;0.70;;;;;;;11.46;76.71;94050.34;5073356;28;20246;-77
2021/05/27 10:47:07;;;;;;;4.40;1.03;;;;;;;12.01;77.08;94045.75;5073123;28;20205;-76
2021/05/27 10:49:58;;;;;;;1.00;0.90;;;;;;;12.55;72.50;94046.47;5075070;28;20230;-76
2021/05/27 10:52:44;;;;;;;2.57;1.17;;;;;;;12.17;71.85;94035.88;5073502;28;20202;-75
2021/05/27 10:55:57;;;;;;;3.47;0.90;;;;;;;12.02;75.74;94050.00;5073046;28;20207;-76
2021/05/27 10:59:11;;;;;;;1.43;0.97;;;;;;;11.80;73.02;94049.34;5072843;28;20201;-76
2021/05/27 11:02:02;;;;;;;1.77;1.07;;;;;;;11.64;74.39;94039.28;5073070;28;20202;-76
2021/05/27 11:04:43;;;;;;;2.80;1.23;;;;;;;12.16;73.64;94053.41;5072896;28;20202;-76
2021/05/27 11:07:23;;;;;;;2.57;1.03;;;;;;;12.25;72.20;94051.38;5072907;28;20230;-77
2021/05/27 11:09:58;;;;;;;3.43;1.23;;;;;;;12.65;74.81;94045.25;5072817;28;20229;-76
2021/05/27 11:12:27;;;;;;;3.37;0.87;;;;;;;12.61;69.76;94042.25;5073152;28;20202;-76
2021/05/27 11:15:14;;;;;;;3.27;1.20;;;;;;;12.68;70.93;94050.88;5072750;28;20211;-76
2021/05/27 11:17:44;;;;;;;1.60;0.90;;;;;;;12.51;70.36;94040.06;5072713;28;20207;-78
2021/05/27 11:20:20;;;;;;;1.73;1.20;;;;;;;13.10;74.62;94042.66;5072838;28;20283;-76
2021/05/27 11:23:02;;;;;;;2.77;0.80;;;;;;;13.00;67.54;94037.84;5072696;28;20230;-77
2021/05/27 11:25:31;;;;;;;1.07;0.90;;;;;;;13.53;73.25;94036.78;5074607;28;20226;-77
2021/05/27 11:28:13;;;;;;;3.13;1.00;;;;;;;13.12;69.22;94027.50;5076799;28;20205;-77
2021/05/27 11:30:45;;;;;;;2.47;1.05;;;;;;;13.64;72.08;94023.00;5075185;28;20445;-76
2021/05/27 11:33:29;;;;;;;2.25;0.82;;;;;;;13.45;67.76;94023.94;5076870;28;20199;-75
2021/05/27 11:35:57;;;;;;;0.77;0.77;;;;;;;13.05;67.58;94027.53;5076950;28;20202;-76
2021/05/27 11:38:25;;;;;;;2.50;1.10;;;;;;;13.50;66.67;94029.34;5076760;28;20233;-77
2021/05/27 11:40:55;;;;;;;0.83;0.83;;;;;;;13.42;63.38;94037.47;5076449;28;20205;-76
2021/05/27 11:43:26;;;;;;;1.30;0.87;;;;;;;13.81;62.43;94027.72;5076577;28;20202;-76
2021/05/27 11:45:54;;;;;;;0.83;0.70;;;;;;;13.52;60.88;94040.41;5076599;28;20211;-76